Terminal Aerodrome Forecast
Issued by NWS Des Moines, IA

Home | Current Version | Previous Version | Text Only | Print | Product List | Glossary On
Versions: 1 2 3 4 5 6 7 8 9 10 11 12 13 14 15 16 17 18 19 20 21 22 23 24 25 26 27 28 29 30 31 32 33 34 35 36 37 38 39 40 41 42 43 44 45 46 47
000
FTUS43 KDMX 031139
TAFDSM
TAF
KDSM 031139Z 0312/0412 16009KT P6SM VCTS BKN040CB
      TEMPO 0312/0313 4SM -TSRA SCT020 BKN035CB
     FM031400 17010KT P6SM SCT020 BKN070
     FM040100 15006KT P6SM VCTS BKN030CB
     FM040700 17007KT P6SM SCT030 BKN080=

USA.gov is the U.S. government's official web portal to all federal, state and local government web resources and services.